Bella Vista, AR

4:24 AM CDT on August 30, 2014 (GMT -0500)
Loch Lomond | Change Station
CLOSE
Current Station
Personal Weather Station
Location: Bella Vista, AR
Elevation: 1243 ft
Nearby Weather Stations

Elev 1243 ft 36.48 °N, 94.33 °W | Updated 23 minutes ago

Mostly Cloudy
Mostly Cloudy
72.2 °F
Feels Like 71 °F
N
0.0
Wind Variable Wind from SSW
Gusts 0.0 mph

Today
High -- | Low -- °F
--% Chance of Precip.
Yesterday
High -- | Low -- °F
Precip. -- in
6:46 AM 7:47 PM
Waxing Crescent, 20% visible
Pressure 29.98 in
Visibility 10.0 miles
Clouds Few 3300 ft
Scattered Clouds 8500 ft
Heat Index 71 °F
Dew Point 68 °F
Humidity 86%
Rainfall 0.00 in
Snow Depth Not available.
UV 0 out of 12
Pollen 10.30 out of 12
Air Quality Not available.
Flu Activity Not available.
METAR KVBT 300915Z AUTO 18003KT 10SM FEW033 SCT085 22/19 A2998 RMK AO1

More Conditions Fewer Conditions

Pressure 29.98 in
Visibility 10.0 miles
Clouds Few 3300 ft
Scattered Clouds 8500 ft
Heat Index 71 °F
Dew Point 68 °F
Humidity 86%
Rainfall 0.00 in
Snow Depth Not available.
UV 0 out of 12
Pollen 10.30 out of 12
Air Quality Not available.
Flu Activity Not available.
METAR KVBT 300915Z AUTO 18003KT 10SM FEW033 SCT085 22/19 A2998 RMK AO1

More Conditions Fewer Conditions

Nowcast | as of 4:03 am CDT on August 30, 2014

At 4 am...weather radars detected scattered showers and isolated thunderstorms east of a line from Miami to McAlester. The majority of the precipitation was occurring across northwest Arkansas. Movement was to the northeast at 20 mph. Through 6 am...scattered showers and isolated thunderstorms will continue across far eastern Oklahoma and northwest Arkansas. Brief heavy downpours and small hail will be possible with the strongest storms.

×

10-Day Weather Forecast

Almanac

Astronomy

Aug. 30, 2014 Rise Set
Actual Time 6:46 AM CDT 7:47 PM CDT
Civil Twilight 6:20 AM CDT 8:14 PM CDT
Nautical Twilight 5:48 AM CDT 8:45 PM CDT
Astronomical Twilight 5:16 AM CDT 9:18 PM CDT
Moon 11:26 AM CDT 10:31 PM CDT
Length of Visible Light 13h 53m
Length of Day
13h 01m
Tomorrow will be 2m 13s shorter.
Waxing Crescent, 20% of the Moon is Illuminated
Today
Waxing Crescent
Sep 2
First Quarter
Sep 8
Full
Sep 15
Last Quarter
Sep 24
New

Today's Extremes

State Highs State Lows

Community

WunderPhotos

Upload Photos

1,748,475 photos uploaded!

Nearby

Snow Depth

Station Depth Elevation
No new snow has been reported.

Earthquake Activity

City Distance Mag. Time & Date
No recent earthquake activity has been reported nearby.
Minimum magnitude displayed is 2.5.

Coastal Water Temperatures

Place Temperature
No Stations Reporting

Nearby Weather Stations